Time;durP1;ratioP1;P1;durP2;ratioP2;P2;SDS_P1;SDS_P2;PMS_P1;PMS_P2;Temp;Humidity;BMP_temperature;BMP_pressure;BME280_temperature;BME280_humidity;BME280_pressure;Samples;Min_cycle;Max_cycle;Signal;HPM_P1;HPM_P2
2024/04/25 00:00:41;;;;;;;3.42;1.83;;;7.00;91.30;;;;;;5366927;26;20015;-63
2024/04/25 00:03:07;;;;;;;4.45;1.60;;;7.00;91.30;;;;;;5360151;26;20016;-63
2024/04/25 00:05:32;;;;;;;3.78;1.60;;;7.00;91.30;;;;;;5355170;26;20081;-65
2024/04/25 00:07:58;;;;;;;3.90;1.58;;;7.00;91.30;;;;;;5368847;26;20002;-63
2024/04/25 00:10:24;;;;;;;2.75;1.60;;;6.90;91.30;;;;;;5353049;26;20352;-64
2024/04/25 00:12:49;;;;;;;2.95;1.67;;;6.90;91.30;;;;;;5361566;26;20001;-62
2024/04/25 00:15:15;;;;;;;3.70;1.67;;;6.90;91.30;;;;;;5357398;26;20316;-65
2024/04/25 00:17:40;;;;;;;4.47;2.10;;;6.80;91.40;;;;;;5358459;26;20028;-63
2024/04/25 00:20:07;;;;;;;3.00;1.52;;;6.80;91.70;;;;;;5358952;26;20078;-63
2024/04/25 00:22:32;;;;;;;1.92;1.73;;;6.80;91.50;;;;;;5362392;26;20071;-62
2024/04/25 00:24:58;;;;;;;4.40;1.90;;;6.70;91.50;;;;;;5368978;26;20016;-63
2024/04/25 00:27:23;;;;;;;3.90;1.80;;;6.70;91.50;;;;;;5350585;26;20018;-63
2024/04/25 00:29:49;;;;;;;5.00;1.73;;;6.60;91.50;;;;;;5366056;26;20032;-63
2024/04/25 00:32:14;;;;;;;3.65;2.00;;;6.60;91.60;;;;;;5365171;26;20002;-62
2024/04/25 00:34:40;;;;;;;2.83;1.80;;;6.60;91.50;;;;;;5358927;26;20001;-63
2024/04/25 00:37:06;;;;;;;3.05;1.80;;;6.50;91.50;;;;;;5361159;26;20004;-64
2024/04/25 00:39:31;;;;;;;5.90;2.10;;;6.50;91.50;;;;;;5370449;26;20020;-63
2024/04/25 00:41:57;;;;;;;5.07;2.40;;;6.50;91.50;;;;;;5361099;26;19997;-61
2024/04/25 00:44:22;;;;;;;4.65;2.10;;;6.40;91.50;;;;;;5353584;26;20001;-65
2024/04/25 00:46:48;;;;;;;4.57;2.05;;;6.40;91.50;;;;;;5353012;26;20014;-65
2024/04/25 00:49:15;;;;;;;4.05;2.10;;;6.40;91.50;;;;;;5364420;26;20004;-65
2024/04/25 00:51:42;;;;;;;4.15;2.15;;;6.30;91.50;;;;;;5349292;26;20008;-64
2024/04/25 00:54:08;;;;;;;4.15;2.17;;;6.30;91.80;;;;;;5353556;26;19996;-63
2024/04/25 00:56:34;;;;;;;4.72;2.30;;;6.20;91.60;;;;;;5356309;26;20382;-64
2024/04/25 00:59:01;;;;;;;3.58;2.20;;;6.20;91.50;;;;;;5366674;26;20093;-64
2024/04/25 01:01:27;;;;;;;6.07;2.20;;;6.20;91.60;;;;;;5359958;26;20052;-65
2024/04/25 01:03:59;;;;;;;3.55;2.28;;;6.20;91.60;;;;;;5359177;26;20000;-66
2024/04/25 01:06:28;;;;;;;4.95;2.10;;;6.20;91.60;;;;;;5347572;26;19997;-64
2024/04/25 01:08:53;;;;;;;4.82;2.10;;;6.20;91.60;;;;;;5358968;26;19996;-65
2024/04/25 01:11:19;;;;;;;4.57;1.92;;;6.20;91.60;;;;;;5356125;26;20011;-64
2024/04/25 01:13:45;;;;;;;5.50;2.33;;;6.20;91.60;;;;;;5360335;26;20079;-62
2024/04/25 01:16:13;;;;;;;5.50;2.00;;;6.20;91.60;;;;;;5364983;26;20004;-64
2024/04/25 01:18:39;;;;;;;4.72;2.30;;;6.10;91.50;;;;;;5375129;26;20448;-61
2024/04/25 01:21:04;;;;;;;6.30;2.20;;;6.20;91.60;;;;;;5350490;26;20005;-63
2024/04/25 01:23:34;;;;;;;5.90;2.60;;;6.20;91.60;;;;;;5356431;26;20010;-64
2024/04/25 01:26:04;;;;;;;6.10;2.78;;;6.20;91.60;;;;;;5363336;26;20037;-64
2024/04/25 01:28:31;;;;;;;6.90;2.78;;;6.20;91.60;;;;;;5351923;26;20098;-63
2024/04/25 01:30:58;;;;;;;7.00;2.63;;;6.20;91.50;;;;;;5354551;26;20004;-63
2024/04/25 01:33:27;;;;;;;6.20;2.70;;;6.20;91.60;;;;;;5348369;26;20028;-63
2024/04/25 01:35:52;;;;;;;10.20;3.40;;;6.10;91.50;;;;;;5358630;26;20011;-64
2024/04/25 01:38:18;;;;;;;7.25;2.97;;;6.10;91.50;;;;;;5364411;26;20344;-63
2024/04/25 01:40:44;;;;;;;8.18;3.08;;;6.00;91.50;;;;;;5362298;26;19996;-63
2024/04/25 01:43:09;;;;;;;7.78;3.22;;;6.00;91.50;;;;;;5363595;26;20077;-63
2024/04/25 01:45:35;;;;;;;9.70;3.13;;;6.00;91.50;;;;;;5358819;26;20400;-64
2024/04/25 01:48:00;;;;;;;6.55;3.15;;;6.00;91.60;;;;;;5355960;26;20008;-64
2024/04/25 01:50:26;;;;;;;5.80;3.15;;;5.90;91.50;;;;;;5347060;26;20045;-63
2024/04/25 01:52:52;;;;;;;8.35;3.13;;;5.90;91.50;;;;;;5371405;26;20357;-64
2024/04/25 01:55:17;;;;;;;7.25;2.80;;;5.90;91.50;;;;;;5367528;26;20019;-64
2024/04/25 01:57:43;;;;;;;9.98;3.33;;;5.90;91.60;;;;;;5360404;26;19996;-64
2024/04/25 02:00:10;;;;;;;5.55;2.83;;;5.80;91.50;;;;;;5364912;26;19996;-65
2024/04/25 02:02:36;;;;;;;6.72;3.05;;;5.80;91.50;;;;;;5358176;26;20231;-64
2024/04/25 02:05:01;;;;;;;8.55;3.58;;;5.80;91.50;;;;;;5355680;26;20039;-63
2024/04/25 02:07:27;;;;;;;9.55;3.13;;;5.80;91.50;;;;;;5365829;26;20006;-64
2024/04/25 02:09:52;;;;;;;8.80;3.70;;;5.70;91.50;;;;;;5365544;26;20508;-63
2024/04/25 02:12:18;;;;;;;9.20;3.30;;;5.70;91.50;;;;;;5372014;26;20000;-65
2024/04/25 02:14:44;;;;;;;6.43;3.30;;;5.70;91.50;;;;;;5366439;26;19997;-64
2024/04/25 02:17:10;;;;;;;6.20;3.25;;;5.70;91.50;;;;;;5362773;26;20005;-62
2024/04/25 02:19:35;;;;;;;10.55;3.42;;;5.70;91.50;;;;;;5355818;26;20016;-63
2024/04/25 02:27:29;;;;;;;8.38;3.63;;;5.70;91.40;;;;;;5369902;26;20019;-63
2024/04/25 02:29:54;;;;;;;5.40;3.13;;;5.80;91.40;;;;;;5373098;26;20012;-63
2024/04/25 02:32:20;;;;;;;7.68;3.08;;;5.80;91.40;;;;;;5351018;26;20005;-64
2024/04/25 02:34:46;;;;;;;7.65;2.97;;;5.80;91.40;;;;;;5365343;26;20008;-63
2024/04/25 02:37:11;;;;;;;8.65;3.30;;;5.90;91.40;;;;;;5361913;26;20014;-61
2024/04/25 02:39:37;;;;;;;9.38;3.40;;;5.90;91.30;;;;;;5357254;26;20277;-64
2024/04/25 02:42:02;;;;;;;6.43;2.88;;;5.90;91.30;;;;;;5349921;26;20040;-60
2024/04/25 02:44:28;;;;;;;7.35;3.17;;;5.90;91.30;;;;;;5368575;26;20011;-63
2024/04/25 02:46:53;;;;;;;7.00;2.97;;;5.90;91.40;;;;;;5372609;26;20065;-63
2024/04/25 02:49:20;;;;;;;7.38;3.08;;;6.00;91.30;;;;;;5360792;26;20011;-64
2024/04/25 02:51:46;;;;;;;7.68;3.03;;;6.00;91.30;;;;;;5373712;26;19997;-64
2024/04/25 02:54:12;;;;;;;5.93;2.83;;;6.00;91.20;;;;;;5369995;26;20070;-66
2024/04/25 02:56:37;;;;;;;6.97;3.05;;;6.00;91.20;;;;;;5400841;26;20005;-65
2024/04/25 02:59:03;;;;;;;7.72;2.83;;;6.00;91.10;;;;;;5360518;26;20022;-64
2024/04/25 03:01:28;;;;;;;7.20;2.90;;;6.00;91.10;;;;;;5372788;26;20004;-65
2024/04/25 03:03:55;;;;;;;5.80;2.67;;;6.10;91.10;;;;;;5364295;26;20015;-64
2024/04/25 03:06:25;;;;;;;6.97;2.58;;;6.00;90.90;;;;;;5375474;26;20008;-65
2024/04/25 03:08:51;;;;;;;5.20;2.50;;;6.10;91.00;;;;;;5347650;26;20001;-64
2024/04/25 03:11:17;;;;;;;6.88;2.60;;;6.00;90.90;;;;;;5358307;26;19993;-65
2024/04/25 03:13:42;;;;;;;6.80;3.00;;;6.00;90.90;;;;;;5374385;26;20003;-64
2024/04/25 03:16:08;;;;;;;7.15;2.67;;;6.00;90.90;;;;;;5346820;26;20001;-65
2024/04/25 03:18:34;;;;;;;6.82;3.38;;;6.00;90.90;;;;;;5354703;26;20004;-64
2024/04/25 03:21:06;;;;;;;8.35;3.10;;;5.90;90.90;;;;;;5359339;26;20680;-64
2024/04/25 03:23:34;;;;;;;7.25;3.00;;;5.90;90.90;;;;;;5361684;26;20011;-64
2024/04/25 03:26:00;;;;;;;7.80;3.20;;;5.90;90.90;;;;;;5378106;26;19996;-64
2024/04/25 03:28:26;;;;;;;7.97;3.08;;;5.80;90.90;;;;;;5363188;26;20470;-63
2024/04/25 03:30:51;;;;;;;6.65;2.92;;;5.80;91.00;;;;;;5364039;26;20060;-65
2024/04/25 03:33:17;;;;;;;6.82;2.80;;;5.80;90.90;;;;;;5366118;26;20004;-65
2024/04/25 03:35:42;;;;;;;6.65;2.85;;;5.80;90.90;;;;;;5357460;26;20043;-64
2024/04/25 03:38:08;;;;;;;5.60;3.00;;;5.70;90.90;;;;;;5353811;26;20001;-63
2024/04/25 03:40:37;;;;;;;6.88;2.90;;;5.70;91.00;;;;;;5363055;26;20004;-65
2024/04/25 03:43:05;;;;;;;6.40;2.80;;;5.70;91.10;;;;;;5356263;26;20082;-62
2024/04/25 03:45:30;;;;;;;6.28;2.65;;;5.70;91.10;;;;;;5352499;26;20580;-65
2024/04/25 03:47:56;;;;;;;5.28;2.53;;;5.70;91.10;;;;;;5348620;26;20016;-65
2024/04/25 03:50:22;;;;;;;7.45;2.60;;;5.70;91.10;;;;;;5352027;26;20064;-65
2024/04/25 03:52:48;;;;;;;7.13;3.17;;;5.70;91.00;;;;;;5352700;26;20012;-65
2024/04/25 03:55:13;;;;;;;8.20;2.65;;;5.70;91.00;;;;;;5370458;26;20004;-64
2024/04/25 03:57:39;;;;;;;7.63;2.83;;;5.80;91.10;;;;;;5362512;26;20100;-64
2024/04/25 04:00:06;;;;;;;8.25;2.88;;;5.70;91.00;;;;;;5345262;26;20458;-65
2024/04/25 04:02:32;;;;;;;5.63;2.40;;;5.80;91.00;;;;;;5357920;26;20012;-65
2024/04/25 04:04:57;;;;;;;6.07;2.67;;;5.80;91.00;;;;;;5354988;26;20099;-64
2024/04/25 04:07:23;;;;;;;6.65;2.47;;;5.80;91.30;;;;;;5351665;26;20005;-65
2024/04/25 04:09:48;;;;;;;5.72;2.65;;;5.80;91.00;;;;;;5354427;26;20023;-65
2024/04/25 04:12:14;;;;;;;5.90;2.88;;;5.80;91.00;;;;;;5358550;26;20347;-65
2024/04/25 04:14:41;;;;;;;6.53;2.65;;;5.80;90.90;;;;;;5360211;26;20084;-64
2024/04/25 04:17:06;;;;;;;5.40;2.75;;;5.80;91.00;;;;;;5370030;26;20759;-64
2024/04/25 04:19:32;;;;;;;8.60;2.80;;;5.80;91.00;;;;;;5346535;26;20023;-65
2024/04/25 04:21:58;;;;;;;5.60;2.85;;;5.80;91.00;;;;;;5370566;26;20457;-65
2024/04/25 04:24:23;;;;;;;5.05;2.75;;;5.80;91.00;;;;;;5373154;26;20016;-65
2024/04/25 04:26:49;;;;;;;6.28;2.90;;;5.80;91.00;;;;;;5366654;26;20018;-63
2024/04/25 04:29:15;;;;;;;9.30;2.95;;;5.70;91.10;;;;;;5360567;26;20104;-64
2024/04/25 04:31:40;;;;;;;6.70;2.75;;;5.60;91.10;;;;;;5362104;26;20003;-65
2024/04/25 04:34:06;;;;;;;7.13;3.00;;;5.60;91.30;;;;;;5362681;26;20011;-65
2024/04/25 04:36:34;;;;;;;7.00;2.83;;;5.60;91.30;;;;;;5367051;26;20037;-65
2024/04/25 04:39:04;;;;;;;8.20;3.10;;;5.60;91.30;;;;;;5359418;26;20503;-63
2024/04/25 04:41:30;;;;;;;6.13;2.95;;;5.70;91.40;;;;;;5370252;26;20255;-64
2024/04/25 04:43:57;;;;;;;7.80;3.13;;;5.70;91.40;;;;;;5370908;26;20000;-64
2024/04/25 04:46:23;;;;;;;8.95;3.10;;;5.70;91.30;;;;;;5362693;26;20000;-66
2024/04/25 04:48:48;;;;;;;7.25;3.30;;;5.80;91.30;;;;;;5353943;26;20041;-65
2024/04/25 04:51:15;;;;;;;7.00;3.05;;;5.80;91.30;;;;;;5373388;26;20075;-62
2024/04/25 04:53:41;;;;;;;5.95;2.58;;;5.80;91.30;;;;;;5354679;26;20001;-65
2024/04/25 04:56:06;;;;;;;4.68;2.42;;;5.90;91.30;;;;;;5363112;26;20087;-62
2024/04/25 04:58:35;;;;;;;9.18;2.80;;;5.90;91.30;;;;;;5369459;26;20007;-65
2024/04/25 05:01:01;;;;;;;9.65;3.30;;;6.00;91.30;;;;;;5378153;26;20031;-65
2024/04/25 05:03:26;;;;;;;7.82;3.38;;;6.00;91.30;;;;;;5347209;26;20005;-62
2024/04/25 05:05:52;;;;;;;9.63;2.90;;;6.00;91.30;;;;;;5361222;26;20004;-65
2024/04/25 05:08:18;;;;;;;7.50;3.25;;;6.00;91.30;;;;;;5365014;26;20008;-64
2024/04/25 05:10:43;;;;;;;6.47;3.25;;;6.10;91.30;;;;;;5363891;26;20081;-63
2024/04/25 05:13:09;;;;;;;6.63;3.17;;;6.10;91.30;;;;;;5364139;26;19996;-65
2024/04/25 05:15:36;;;;;;;4.82;2.90;;;6.20;91.30;;;;;;5365987;26;20011;-64
2024/04/25 05:18:03;;;;;;;6.20;3.10;;;6.20;91.30;;;;;;5387533;26;20003;-64
2024/04/25 05:20:29;;;;;;;8.23;3.60;;;6.20;91.30;;;;;;5366526;26;19993;-64
2024/04/25 05:22:55;;;;;;;9.88;3.72;;;6.30;91.60;;;;;;5354953;26;20018;-62
2024/04/25 05:25:20;;;;;;;8.82;3.78;;;6.30;91.30;;;;;;5367550;26;20661;-64
2024/04/25 05:27:46;;;;;;;9.05;3.78;;;6.40;91.30;;;;;;5351206;26;20005;-65
2024/04/25 05:30:13;;;;;;;10.00;4.00;;;6.40;91.30;;;;;;5369443;26;20438;-65
2024/04/25 05:32:39;;;;;;;7.43;3.65;;;6.50;91.20;;;;;;5388359;26;20338;-65
2024/04/25 05:35:05;;;;;;;7.10;3.97;;;6.60;91.20;;;;;;5356710;26;20004;-63
2024/04/25 05:37:31;;;;;;;9.95;4.03;;;6.60;91.20;;;;;;5357934;26;20467;-64
2024/04/25 05:39:57;;;;;;;8.95;4.10;;;6.60;91.20;;;;;;5372486;26;19996;-65
2024/04/25 05:42:22;;;;;;;8.50;4.30;;;6.70;91.10;;;;;;5360064;26;20040;-65
2024/04/25 05:44:49;;;;;;;6.70;4.00;;;6.90;91.20;;;;;;5362721;26;20011;-64
2024/04/25 05:47:16;;;;;;;10.02;4.35;;;7.20;91.20;;;;;;5345228;26;20005;-64
2024/04/25 05:49:43;;;;;;;7.07;4.20;;;7.50;90.80;;;;;;5342066;26;20423;-64
2024/04/25 05:52:08;;;;;;;6.78;3.78;;;7.80;90.20;;;;;;5356223;26;20436;-63
2024/04/25 05:54:34;;;;;;;7.10;4.20;;;7.80;89.90;;;;;;5354898;26;20009;-64
2024/04/25 05:57:00;;;;;;;6.70;4.78;;;7.70;89.80;;;;;;5360573;26;20009;-62
2024/04/25 05:59:26;;;;;;;9.35;4.85;;;7.60;90.00;;;;;;5361771;26;20020;-62
2024/04/25 06:01:51;;;;;;;10.13;4.63;;;7.50;90.10;;;;;;5363015;26;20073;-63
2024/04/25 06:04:17;;;;;;;9.60;4.90;;;7.40;90.20;;;;;;5351131;26;19996;-63
2024/04/25 06:06:43;;;;;;;9.38;4.70;;;7.30;90.40;;;;;;5356737;26;20360;-63
2024/04/25 06:09:08;;;;;;;9.43;4.53;;;7.30;90.50;;;;;;5363262;26;19996;-64
2024/04/25 06:11:34;;;;;;;9.57;4.72;;;7.30;90.60;;;;;;5378726;26;20342;-62
2024/04/25 06:13:59;;;;;;;8.82;4.25;;;7.30;90.60;;;;;;5374984;26;20000;-64
2024/04/25 06:16:25;;;;;;;7.18;4.40;;;7.50;90.80;;;;;;5366300;26;20020;-64
2024/04/25 06:18:50;;;;;;;7.57;3.72;;;7.90;90.40;;;;;;5375373;26;20036;-63
2024/04/25 06:21:16;;;;;;;9.13;4.05;;;8.00;89.90;;;;;;5365921;26;19996;-63
2024/04/25 06:23:42;;;;;;;7.95;3.22;;;8.00;89.50;;;;;;5368609;26;19992;-64
2024/04/25 06:26:08;;;;;;;6.28;2.92;;;7.90;89.50;;;;;;5359221;26;20032;-63
2024/04/25 06:28:34;;;;;;;9.10;3.08;;;7.80;89.50;;;;;;5370634;26;20081;-65
2024/04/25 06:30:59;;;;;;;8.05;2.80;;;7.80;89.50;;;;;;5355919;26;20041;-65
2024/04/25 06:33:26;;;;;;;8.90;2.92;;;7.80;89.60;;;;;;5358027;26;20037;-62
2024/04/25 06:35:51;;;;;;;6.70;2.92;;;7.90;89.60;;;;;;5362640;26;20000;-65
2024/04/25 06:38:18;;;;;;;7.75;3.70;;;8.00;89.30;;;;;;5365067;26;20015;-64
2024/04/25 06:40:44;;;;;;;9.23;3.92;;;8.10;88.80;;;;;;5370902;26;20049;-64
2024/04/25 06:43:10;;;;;;;6.47;3.97;;;8.60;88.00;;;;;;5355690;26;20012;-65
2024/04/25 06:45:36;;;;;;;7.18;3.70;;;9.40;86.40;;;;;;5369082;26;19996;-63
2024/04/25 06:48:04;;;;;;;6.97;3.90;;;9.50;84.60;;;;;;5368881;26;20008;-62
2024/04/25 06:50:29;;;;;;;8.95;3.95;;;9.40;84.20;;;;;;5367825;26;20004;-64
2024/04/25 06:52:55;;;;;;;8.60;4.15;;;9.30;84.40;;;;;;5357146;26;19992;-63
2024/04/25 06:55:20;;;;;;;8.20;4.28;;;9.40;84.60;;;;;;5355157;26;20009;-62
2024/04/25 06:57:46;;;;;;;7.18;4.07;;;9.30;84.50;;;;;;5367984;26;20451;-64
2024/04/25 07:00:14;;;;;;;8.90;4.40;;;9.10;84.80;;;;;;5366731;26;20016;-64
2024/04/25 07:02:39;;;;;;;7.53;3.92;;;8.90;85.30;;;;;;5365895;26;20000;-64
2024/04/25 07:05:05;;;;;;;10.50;4.78;;;8.90;85.70;;;;;;5360499;26;20024;-64
2024/04/25 07:07:31;;;;;;;9.32;3.95;;;9.00;85.90;;;;;;5362043;26;20016;-64
2024/04/25 07:09:57;;;;;;;6.93;3.95;;;9.00;85.80;;;;;;5368906;26;20127;-64
2024/04/25 07:12:22;;;;;;;7.75;3.60;;;9.10;85.80;;;;;;5383951;26;20007;-63
2024/04/25 07:14:48;;;;;;;8.48;3.80;;;9.50;85.60;;;;;;5369828;26;20019;-65
2024/04/25 07:17:13;;;;;;;6.53;3.55;;;9.70;84.40;;;;;;5356025;26;19997;-65
2024/04/25 07:19:39;;;;;;;6.82;3.70;;;10.10;83.50;;;;;;5357311;26;19997;-64
2024/04/25 07:22:04;;;;;;;7.00;3.63;;;10.10;82.80;;;;;;5372671;26;20048;-66
2024/04/25 07:24:30;;;;;;;6.60;3.20;;;10.00;82.70;;;;;;5359381;26;20009;-65
2024/04/25 07:26:56;;;;;;;5.50;3.00;;;9.80;82.90;;;;;;5371643;26;20414;-65
2024/04/25 07:29:22;;;;;;;7.55;3.30;;;10.00;83.20;;;;;;5368745;26;20009;-65
2024/04/25 07:31:47;;;;;;;7.35;3.38;;;10.10;82.50;;;;;;5371629;26;19997;-65
2024/04/25 07:34:13;;;;;;;7.35;3.30;;;11.40;81.40;;;;;;5365223;26;20000;-66
2024/04/25 07:36:38;;;;;;;9.55;3.22;;;12.70;77.20;;;;;;5360425;26;20004;-65
2024/04/25 07:39:04;;;;;;;5.32;2.60;;;12.20;75.70;;;;;;5355422;26;20000;-64
2024/04/25 07:41:31;;;;;;;6.82;2.90;;;11.70;76.40;;;;;;5347380;26;20000;-63
2024/04/25 07:43:58;;;;;;;7.85;3.30;;;12.20;76.70;;;;;;5347475;26;20540;-66
2024/04/25 07:46:24;;;;;;;5.60;2.70;;;12.90;72.80;;;;;;5343291;26;20013;-65
2024/04/25 07:48:50;;;;;;;5.97;2.85;;;12.10;73.40;;;;;;5344510;26;20011;-65
2024/04/25 07:51:16;;;;;;;7.60;3.10;;;11.60;74.70;;;;;;5356098;26;20000;-66
2024/04/25 07:53:41;;;;;;;8.45;3.58;;;11.00;76.10;;;;;;5343897;26;20013;-65
2024/04/25 07:56:07;;;;;;;8.23;3.50;;;11.20;77.40;;;;;;5356062;26;20069;-66
2024/04/25 07:58:32;;;;;;;8.10;3.22;;;10.90;76.80;;;;;;5370897;26;20005;-64
2024/04/25 08:00:58;;;;;;;5.90;3.30;;;10.40;77.90;;;;;;5360537;26;20712;-64
2024/04/25 08:03:24;;;;;;;7.82;3.55;;;10.30;79.00;;;;;;5347952;26;20551;-65
2024/04/25 08:05:53;;;;;;;6.95;2.90;;;10.40;79.20;;;;;;5360734;26;20000;-64
2024/04/25 08:08:19;;;;;;;9.75;3.65;;;10.30;79.30;;;;;;5349529;26;20012;-65
2024/04/25 08:10:46;;;;;;;8.35;3.55;;;10.80;79.20;;;;;;5359164;26;20014;-65
2024/04/25 08:13:12;;;;;;;6.90;3.40;;;11.30;77.80;;;;;;5356482;26;20088;-65
2024/04/25 08:15:37;;;;;;;7.68;3.50;;;11.30;77.10;;;;;;5361209;26;20063;-66
2024/04/25 08:18:04;;;;;;;7.13;3.35;;;11.70;77.20;;;;;;5367583;26;20024;-64
2024/04/25 08:20:30;;;;;;;8.32;3.28;;;12.00;76.90;;;;;;5365154;26;19992;-66
2024/04/25 08:22:56;;;;;;;8.10;3.22;;;11.90;75.80;;;;;;5369301;26;20019;-65
2024/04/25 08:25:21;;;;;;;9.23;3.10;;;11.80;75.20;;;;;;5378965;26;19996;-65
2024/04/25 08:27:47;;;;;;;7.32;3.15;;;11.70;74.40;;;;;;5357783;26;20001;-65
2024/04/25 08:30:12;;;;;;;6.45;3.10;;;11.50;73.90;;;;;;5357784;26;20008;-65
2024/04/25 08:32:38;;;;;;;8.60;3.10;;;11.20;74.20;;;;;;5371148;26;20004;-65
2024/04/25 08:35:04;;;;;;;5.93;2.85;;;11.00;74.70;;;;;;5365198;26;20061;-64
2024/04/25 08:37:30;;;;;;;6.53;3.03;;;10.90;75.10;;;;;;5371054;26;19996;-64
2024/04/25 08:39:56;;;;;;;6.90;3.05;;;10.70;75.10;;;;;;5359674;26;20036;-65
2024/04/25 08:42:22;;;;;;;6.88;2.88;;;10.60;75.50;;;;;;5377099;26;19996;-66
2024/04/25 08:44:49;;;;;;;6.13;2.53;;;10.50;75.60;;;;;;5365328;26;20008;-64
2024/04/25 08:47:15;;;;;;;6.63;2.25;;;10.50;76.00;;;;;;5369860;26;20335;-64
2024/04/25 08:49:42;;;;;;;5.85;2.20;;;10.50;76.20;;;;;;5357928;26;20005;-65
2024/04/25 08:52:08;;;;;;;4.50;2.10;;;10.40;75.70;;;;;;5354481;26;20000;-64
2024/04/25 08:54:37;;;;;;;3.80;1.95;;;10.40;75.90;;;;;;5367044;26;20106;-64
2024/04/25 08:57:02;;;;;;;7.07;2.40;;;10.40;76.00;;;;;;5348333;26;20020;-65
2024/04/25 08:59:28;;;;;;;8.70;2.80;;;10.40;76.10;;;;;;5349802;26;20013;-65
2024/04/25 09:01:55;;;;;;;6.13;2.35;;;10.30;76.10;;;;;;5353031;26;20620;-66
2024/04/25 09:04:25;;;;;;;6.30;2.45;;;10.20;75.90;;;;;;5352906;26;20001;-65
2024/04/25 09:06:50;;;;;;;5.13;2.63;;;10.00;76.10;;;;;;5354226;26;20012;-65
2024/04/25 09:09:16;;;;;;;7.72;2.90;;;9.90;76.10;;;;;;5370672;26;19996;-64
2024/04/25 09:11:42;;;;;;;5.30;2.83;;;9.90;76.30;;;;;;5364235;26;19996;-65
2024/04/25 09:14:09;;;;;;;6.38;3.10;;;9.90;76.40;;;;;;5362585;26;20003;-65
2024/04/25 09:16:38;;;;;;;7.63;2.85;;;10.00;76.60;;;;;;5362865;26;20497;-62
2024/04/25 09:19:04;;;;;;;6.10;2.90;;;10.20;76.30;;;;;;5364071;26;20082;-63
2024/04/25 09:21:29;;;;;;;5.55;3.22;;;10.20;76.00;;;;;;5363721;26;20004;-64
2024/04/25 09:23:55;;;;;;;5.70;3.30;;;10.30;75.70;;;;;;5362291;26;20398;-64
2024/04/25 09:26:21;;;;;;;5.28;3.47;;;10.40;75.60;;;;;;5364961;26;20099;-66
2024/04/25 09:28:47;;;;;;;6.63;3.25;;;10.50;75.40;;;;;;5359694;26;20000;-66
2024/04/25 09:31:13;;;;;;;6.53;3.47;;;10.60;75.50;;;;;;5365233;26;20000;-65
2024/04/25 09:33:39;;;;;;;5.00;3.45;;;10.70;75.00;;;;;;5369281;26;20339;-66
2024/04/25 09:36:07;;;;;;;8.80;3.38;;;10.90;74.90;;;;;;5364735;26;19993;-66
2024/04/25 09:38:34;;;;;;;6.82;3.45;;;11.00;74.10;;;;;;5359390;26;20004;-64
2024/04/25 09:41:01;;;;;;;5.65;3.25;;;10.90;73.30;;;;;;5357762;26;20339;-64
2024/04/25 09:43:27;;;;;;;8.48;3.40;;;10.90;73.60;;;;;;5356926;26;20004;-66
2024/04/25 09:45:58;;;;;;;5.07;2.80;;;10.90;73.50;;;;;;5355606;26;20012;-66
2024/04/25 09:48:29;;;;;;;5.00;2.90;;;10.90;73.20;;;;;;5366253;26;20485;-66
2024/04/25 09:50:57;;;;;;;6.60;3.15;;;10.90;73.70;;;;;;5356890;26;20008;-66
2024/04/25 09:53:37;;;;;;;5.80;2.33;;;10.90;73.40;;;;;;5359083;26;20470;-66
2024/04/25 09:56:04;;;;;;;5.43;2.47;;;10.90;73.20;;;;;;5360726;26;20380;-66
2024/04/25 09:58:56;;;;;;;6.25;2.30;;;11.00;73.20;;;;;;5356890;26;20008;-63
2024/04/25 10:01:24;;;;;;;4.43;1.77;;;11.10;71.70;;;;;;5363436;26;20081;-65
2024/04/25 10:03:50;;;;;;;6.25;2.28;;;11.20;71.30;;;;;;5366046;26;20778;-65
2024/04/25 10:06:17;;;;;;;6.60;2.40;;;11.20;70.60;;;;;;5358463;26;20013;-67
2024/04/25 10:08:43;;;;;;;5.30;2.30;;;11.20;70.90;;;;;;5355089;26;20016;-63
2024/04/25 10:11:14;;;;;;;5.63;2.15;;;11.30;70.40;;;;;;5357747;26;20025;-65
2024/04/25 10:13:49;;;;;;;4.82;2.10;;;11.40;70.80;;;;;;5366249;26;20003;-64
2024/04/25 10:16:17;;;;;;;4.10;2.10;;;11.60;70.30;;;;;;5364794;26;20010;-66
2024/04/25 10:18:49;;;;;;;6.07;2.75;;;11.60;70.10;;;;;;5354902;26;20011;-66
2024/04/25 10:21:15;;;;;;;5.97;3.33;;;11.70;70.00;;;;;;5355299;26;19993;-66
2024/04/25 10:23:41;;;;;;;6.57;3.50;;;11.60;69.70;;;;;;5359871;26;20069;-65
2024/04/25 10:26:17;;;;;;;5.32;2.90;;;11.50;69.60;;;;;;5361073;26;20023;-64
2024/04/25 10:28:43;;;;;;;5.38;2.60;;;11.60;70.10;;;;;;5355317;26;20016;-65
2024/04/25 10:31:08;;;;;;;6.60;2.70;;;11.70;69.80;;;;;;5359361;26;19993;-63
2024/04/25 10:33:34;;;;;;;5.07;2.88;;;11.60;69.20;;;;;;5364127;26;20086;-65
2024/04/25 10:36:04;;;;;;;4.50;2.92;;;11.70;68.90;;;;;;5360432;26;20462;-65
2024/04/25 10:38:29;;;;;;;6.38;3.03;;;11.60;68.40;;;;;;5357186;26;20047;-64
2024/04/25 10:40:56;;;;;;;4.47;2.80;;;11.50;68.50;;;;;;5343798;26;20013;-62
2024/04/25 10:43:21;;;;;;;8.13;2.78;;;11.50;68.60;;;;;;5340909;26;20448;-63
2024/04/25 10:45:48;;;;;;;3.67;2.33;;;11.40;68.60;;;;;;5344857;26;20060;-63
2024/04/25 10:48:14;;;;;;;4.65;2.20;;;11.20;68.40;;;;;;5349611;26;20001;-65
2024/04/25 10:50:42;;;;;;;2.55;1.80;;;10.90;68.80;;;;;;5353302;26;20755;-66
2024/04/25 10:53:08;;;;;;;4.68;1.88;;;10.70;69.50;;;;;;5352568;26;20029;-66
2024/04/25 10:55:34;;;;;;;4.05;1.70;;;10.60;70.20;;;;;;5361507;26;20319;-64
2024/04/25 10:58:10;;;;;;;4.63;1.63;;;10.50;70.70;;;;;;5371123;26;20015;-63
2024/04/25 11:00:43;;;;;;;4.50;1.85;;;10.30;71.10;;;;;;5353520;26;20488;-65
2024/04/25 11:03:12;;;;;;;4.13;1.88;;;10.20;71.50;;;;;;5364108;26;20012;-66
2024/04/25 11:05:41;;;;;;;3.22;1.60;;;10.10;71.80;;;;;;5371693;26;20469;-64
2024/04/25 11:08:07;;;;;;;4.55;1.73;;;10.10;72.40;;;;;;5364216;26;19997;-64
2024/04/25 11:10:32;;;;;;;3.72;1.80;;;10.00;72.50;;;;;;5365338;26;20008;-65
2024/04/25 11:12:58;;;;;;;3.70;1.70;;;10.00;72.60;;;;;;5372862;26;20004;-64
2024/04/25 11:15:26;;;;;;;4.50;1.50;;;9.90;72.70;;;;;;5353245;26;20007;-64
2024/04/25 11:17:52;;;;;;;5.07;1.95;;;10.00;72.70;;;;;;5370450;26;20358;-63
2024/04/25 11:20:19;;;;;;;7.20;2.15;;;10.00;72.50;;;;;;5364908;26;19993;-64
2024/04/25 11:22:44;;;;;;;3.47;1.67;;;10.10;72.20;;;;;;5373273;26;20000;-63
2024/04/25 11:25:17;;;;;;;5.53;2.30;;;10.20;72.10;;;;;;5368481;26;20578;-64
2024/04/25 11:27:44;;;;;;;5.20;2.20;;;10.30;71.90;;;;;;5374119;26;20000;-64
2024/04/25 11:30:10;;;;;;;5.93;2.10;;;10.30;71.60;;;;;;5371570;26;19996;-64
2024/04/25 11:32:36;;;;;;;5.43;2.13;;;10.40;71.80;;;;;;5351522;26;20008;-64
2024/04/25 11:35:08;;;;;;;6.75;2.40;;;10.60;72.00;;;;;;5354028;26;20258;-65
2024/04/25 11:37:40;;;;;;;7.28;2.85;;;10.60;71.80;;;;;;5354576;26;20081;-64
2024/04/25 11:40:06;;;;;;;4.95;2.13;;;10.50;71.50;;;;;;5363525;26;20000;-66
2024/04/25 11:42:32;;;;;;;6.80;2.38;;;10.60;71.60;;;;;;5361151;26;20025;-65
2024/04/25 11:44:58;;;;;;;6.28;2.30;;;10.60;71.60;;;;;;5356500;26;20403;-63
2024/04/25 11:47:23;;;;;;;5.70;2.00;;;10.60;71.50;;;;;;5356176;26;20405;-66
2024/04/25 11:49:49;;;;;;;4.05;1.85;;;10.70;71.50;;;;;;5348378;26;20004;-66
2024/04/25 11:52:15;;;;;;;4.07;1.63;;;10.80;71.20;;;;;;5348775;26;20015;-66
2024/04/25 11:54:41;;;;;;;4.97;2.05;;;10.90;70.80;;;;;;5341212;26;20013;-65
2024/04/25 11:57:06;;;;;;;3.45;1.95;;;11.00;70.40;;;;;;5358587;26;20040;-66
2024/04/25 11:59:32;;;;;;;5.38;2.00;;;11.10;69.60;;;;;;5362025;26;20008;-66
2024/04/25 12:01:59;;;;;;;4.28;2.03;;;11.30;69.30;;;;;;5354432;26;20011;-66
2024/04/25 12:04:24;;;;;;;4.68;1.98;;;11.30;68.40;;;;;;5348356;26;19993;-66
2024/04/25 12:06:50;;;;;;;5.78;2.15;;;11.40;67.70;;;;;;5341686;26;20099;-66
2024/04/25 12:09:15;;;;;;;5.57;1.80;;;11.50;67.20;;;;;;5356909;26;20004;-65
2024/04/25 12:11:42;;;;;;;4.63;1.80;;;11.50;66.10;;;;;;5351872;26;20008;-63
2024/04/25 12:14:08;;;;;;;3.15;1.70;;;11.40;65.40;;;;;;5356151;26;20337;-63
2024/04/25 12:16:34;;;;;;;5.53;1.85;;;11.30;64.70;;;;;;5365738;26;20079;-64
2024/04/25 12:19:00;;;;;;;4.90;1.73;;;11.20;63.60;;;;;;5357728;26;20016;-64
2024/04/25 12:21:26;;;;;;;3.42;1.50;;;11.20;62.80;;;;;;5354341;26;20500;-65
2024/04/25 12:23:52;;;;;;;5.93;1.65;;;11.20;62.90;;;;;;5351022;26;20008;-65
2024/04/25 12:26:18;;;;;;;6.05;1.70;;;11.20;62.80;;;;;;5360655;26;20332;-65
2024/04/25 12:28:44;;;;;;;6.72;2.03;;;11.10;62.10;;;;;;5362940;26;20482;-65
2024/04/25 12:31:10;;;;;;;4.53;1.70;;;11.10;62.00;;;;;;5342995;26;19997;-64
2024/04/25 12:33:40;;;;;;;5.03;1.50;;;11.00;61.90;;;;;;5353775;26;20001;-64
2024/04/25 12:36:06;;;;;;;5.35;1.90;;;11.10;62.40;;;;;;5358628;26;20016;-64
2024/04/25 12:38:32;;;;;;;5.45;1.70;;;11.10;62.10;;;;;;5351264;26;20015;-61
2024/04/25 12:40:58;;;;;;;7.50;2.92;;;11.00;62.50;;;;;;5361624;26;20052;-63
2024/04/25 12:43:23;;;;;;;8.45;2.45;;;11.00;62.90;;;;;;5354436;26;20008;-64
2024/04/25 12:45:51;;;;;;;5.97;2.70;;;11.00;63.20;;;;;;5361455;26;20342;-63
2024/04/25 12:48:17;;;;;;;9.43;3.17;;;11.00;63.70;;;;;;5357079;26;20000;-64
2024/04/25 12:50:43;;;;;;;6.45;3.08;;;11.10;63.90;;;;;;5351065;26;20004;-65
2024/04/25 12:53:11;;;;;;;6.50;3.17;;;11.30;64.80;;;;;;5354677;26;20458;-63